Time;durP1;ratioP1;P1;durP2;ratioP2;P2;SDS_P1;SDS_P2;PMS_P1;PMS_P2;Temp;Humidity;BMP_temperature;BMP_pressure;BME280_temperature;BME280_humidity;BME280_pressure;Samples;Min_cycle;Max_cycle;Signal;HPM_P1;HPM_P2
2023/12/07 00:01:43;;;;;;;3.88;2.35;;;19.90;99.90;;;;;;4993541;28;20117;-49
2023/12/07 00:04:09;;;;;;;3.25;2.15;;;19.90;99.90;;;;;;4993872;28;20018;-49
2023/12/07 00:06:34;;;;;;;3.90;2.38;;;19.90;99.90;;;;;;4993776;28;20093;-49
2023/12/07 00:09:01;;;;;;;3.22;2.33;;;19.90;99.90;;;;;;4993446;28;20034;-49
2023/12/07 00:11:27;;;;;;;3.13;2.30;;;19.90;99.90;;;;;;4993371;28;20399;-49
2023/12/07 00:13:53;;;;;;;4.10;2.08;;;19.90;99.90;;;;;;4993543;28;20038;-49
2023/12/07 00:16:18;;;;;;;2.72;2.08;;;19.90;99.90;;;;;;4993631;28;20033;-48
2023/12/07 00:18:44;;;;;;;3.05;2.20;;;19.90;99.90;;;;;;5008633;28;20026;-49
2023/12/07 00:21:10;;;;;;;4.03;2.58;;;19.90;99.90;;;;;;4993467;28;20097;-49
2023/12/07 00:23:37;;;;;;;4.60;2.53;;;19.80;99.90;;;;;;4993482;28;20039;-49
2023/12/07 00:26:04;;;;;;;5.35;2.50;;;19.90;99.90;;;;;;4993333;28;20028;-48
2023/12/07 00:28:30;;;;;;;2.35;1.80;;;19.90;99.90;;;;;;4993346;28;20026;-49
2023/12/07 00:30:56;;;;;;;3.92;2.25;;;19.80;99.90;;;;;;4999247;28;20033;-49
2023/12/07 00:33:22;;;;;;;4.20;2.40;;;19.80;99.90;;;;;;4992004;28;20041;-48
2023/12/07 00:35:48;;;;;;;2.65;1.90;;;19.80;99.90;;;;;;4991213;28;20027;-49
2023/12/07 00:38:14;;;;;;;2.90;2.00;;;19.80;99.90;;;;;;4991757;28;20029;-48
2023/12/07 00:40:40;;;;;;;3.20;2.20;;;19.80;99.90;;;;;;4992342;28;20383;-49
2023/12/07 00:43:09;;;;;;;2.97;2.08;;;19.80;99.90;;;;;;4993203;28;20026;-49
2023/12/07 00:45:35;;;;;;;2.97;2.20;;;19.80;99.90;;;;;;4993219;28;20024;-49
2023/12/07 00:48:00;;;;;;;3.53;2.45;;;19.80;99.90;;;;;;4993115;28;20391;-49
2023/12/07 00:50:26;;;;;;;2.55;2.20;;;19.80;99.90;;;;;;4993387;28;20022;-48
2023/12/07 00:52:52;;;;;;;4.22;2.13;;;19.80;99.90;;;;;;4993073;28;20109;-49
2023/12/07 00:55:18;;;;;;;3.88;2.00;;;19.80;99.90;;;;;;4992825;28;20029;-49
2023/12/07 00:57:43;;;;;;;3.83;1.88;;;19.80;99.90;;;;;;5008042;28;20030;-49
2023/12/07 01:00:10;;;;;;;3.22;2.17;;;19.80;99.90;;;;;;5005175;23;20032;-49
2023/12/07 01:02:36;;;;;;;3.53;2.30;;;19.80;99.90;;;;;;4992404;28;20043;-49
2023/12/07 01:05:02;;;;;;;3.08;2.10;;;19.80;99.90;;;;;;4992998;28;20045;-50
2023/12/07 01:07:28;;;;;;;2.05;1.63;;;19.80;99.90;;;;;;4993147;28;20034;-49
2023/12/07 01:09:53;;;;;;;2.78;2.10;;;19.80;99.90;;;;;;4992805;28;20026;-50
2023/12/07 01:12:19;;;;;;;3.95;2.17;;;19.80;99.90;;;;;;4992846;28;20078;-51
2023/12/07 01:14:45;;;;;;;3.30;2.00;;;19.80;99.90;;;;;;4991584;28;20141;-49
2023/12/07 01:17:11;;;;;;;3.00;2.20;;;19.80;99.90;;;;;;4992703;28;20109;-49
2023/12/07 01:19:37;;;;;;;2.30;1.90;;;19.80;99.90;;;;;;4992801;28;20030;-50
2023/12/07 01:22:03;;;;;;;2.92;2.20;;;19.80;99.90;;;;;;4995694;28;20023;-49
2023/12/07 01:24:29;;;;;;;2.50;2.10;;;19.70;99.90;;;;;;4997008;28;20113;-49
2023/12/07 01:26:55;;;;;;;3.45;2.28;;;19.80;99.90;;;;;;4996690;28;20058;-50
2023/12/07 01:29:21;;;;;;;2.22;1.88;;;19.80;99.90;;;;;;4996643;28;20150;-49
2023/12/07 01:31:47;;;;;;;2.95;1.95;;;19.80;99.90;;;;;;4996459;28;20105;-49
2023/12/07 01:34:12;;;;;;;1.88;1.58;;;19.80;99.90;;;;;;4996727;28;20022;-49
2023/12/07 01:36:38;;;;;;;2.50;2.08;;;19.80;99.90;;;;;;4996580;28;20549;-49
2023/12/07 01:39:05;;;;;;;2.70;2.10;;;19.80;99.90;;;;;;4995194;28;20054;-50
2023/12/07 01:41:31;;;;;;;3.55;2.10;;;19.80;99.90;;;;;;4996810;28;20529;-47
2023/12/07 01:43:56;;;;;;;2.72;2.00;;;19.80;99.90;;;;;;5011737;28;20026;-50
2023/12/07 01:46:23;;;;;;;2.28;1.65;;;19.80;99.90;;;;;;4996427;28;20026;-50
2023/12/07 01:48:49;;;;;;;2.45;1.63;;;19.80;99.90;;;;;;5011681;28;20027;-50
2023/12/07 01:51:16;;;;;;;2.60;2.00;;;19.80;99.90;;;;;;4995156;28;20030;-49
2023/12/07 01:53:42;;;;;;;2.78;2.08;;;19.80;99.90;;;;;;4996305;28;20050;-50
2023/12/07 01:56:10;;;;;;;3.88;1.90;;;19.80;99.90;;;;;;4996312;28;20424;-49
2023/12/07 01:58:36;;;;;;;3.40;2.38;;;19.80;99.90;;;;;;4996154;28;20034;-49
2023/12/07 02:01:03;;;;;;;2.95;2.17;;;19.80;99.90;;;;;;5008656;23;20145;-48
2023/12/07 02:03:30;;;;;;;2.58;1.80;;;19.80;99.90;;;;;;4996297;28;20057;-49
2023/12/07 02:05:58;;;;;;;2.85;2.25;;;19.80;99.90;;;;;;4994666;28;20077;-49
2023/12/07 02:08:24;;;;;;;3.10;2.00;;;19.80;99.90;;;;;;4994770;28;20033;-48
2023/12/07 02:10:49;;;;;;;2.70;1.83;;;19.80;99.90;;;;;;4996203;28;20030;-49
2023/12/07 02:13:15;;;;;;;3.83;2.22;;;19.80;99.90;;;;;;4995990;28;20046;-49
2023/12/07 02:15:41;;;;;;;3.28;2.20;;;19.80;99.90;;;;;;4995831;28;20029;-49
2023/12/07 02:18:18;;;;;;;3.00;2.05;;;19.80;99.90;;;;;;4995744;28;20053;-49
2023/12/07 02:21:25;;;;;;;2.70;2.08;;;19.80;99.90;;;;;;4995746;28;20089;-49
2023/12/07 02:23:54;;;;;;;5.03;2.22;;;19.80;99.90;;;;;;4983686;28;20425;-48
2023/12/07 02:26:22;;;;;;;3.15;1.90;;;19.80;99.90;;;;;;4995861;28;20092;-49
2023/12/07 02:28:48;;;;;;;3.67;1.83;;;19.80;99.90;;;;;;4995709;28;20031;-49
2023/12/07 02:31:14;;;;;;;4.53;2.50;;;19.80;99.90;;;;;;4990576;28;20034;-48
2023/12/07 02:33:39;;;;;;;3.35;2.17;;;19.80;99.90;;;;;;4990198;28;20129;-49
2023/12/07 02:36:06;;;;;;;2.60;2.13;;;19.80;99.90;;;;;;4995051;28;20030;-48
2023/12/07 02:38:32;;;;;;;3.38;2.10;;;19.80;99.90;;;;;;4994786;28;20030;-49
2023/12/07 02:41:00;;;;;;;5.55;2.10;;;19.80;99.90;;;;;;4995275;28;20030;-49
2023/12/07 02:43:26;;;;;;;;;;;19.80;99.90;;;;;;4989904;28;20110;-49
2023/12/07 02:45:52;;;;;;;3.78;2.15;;;19.80;99.90;;;;;;4976072;28;19952;-48
2023/12/07 02:48:20;;;;;;;6.05;2.60;;;19.80;99.90;;;;;;4976038;28;20483;-49
2023/12/07 02:50:45;;;;;;;3.40;2.38;;;19.80;99.90;;;;;;4991365;28;20096;-48
2023/12/07 02:53:11;;;;;;;4.53;2.15;;;19.80;99.90;;;;;;4994589;28;20113;-49
2023/12/07 02:55:37;;;;;;;3.95;2.55;;;19.80;99.90;;;;;;4987276;28;20038;-49
2023/12/07 02:58:03;;;;;;;3.33;2.08;;;19.80;99.90;;;;;;4975592;28;20027;-48
2023/12/07 03:00:29;;;;;;;5.05;2.40;;;19.80;99.90;;;;;;4988437;23;20038;-49
2023/12/07 03:02:55;;;;;;;2.08;1.77;;;19.80;99.90;;;;;;4975209;28;20039;-48
2023/12/07 03:05:22;;;;;;;4.97;2.03;;;19.80;99.90;;;;;;4975907;28;20034;-48
2023/12/07 03:07:48;;;;;;;17.48;3.30;;;19.90;99.90;;;;;;4975270;28;20080;-47
2023/12/07 03:10:14;;;;;;;4.03;2.08;;;19.80;99.90;;;;;;4973233;28;20034;-48
2023/12/07 03:12:40;;;;;;;2.78;1.92;;;19.90;99.90;;;;;;4975318;28;20035;-48
2023/12/07 03:15:06;;;;;;;6.57;2.55;;;19.90;99.90;;;;;;4975001;28;20494;-48
2023/12/07 03:17:32;;;;;;;4.75;2.20;;;19.90;99.90;;;;;;4975345;28;20029;-48
2023/12/07 03:19:58;;;;;;;3.20;2.20;;;19.90;99.90;;;;;;4974807;28;20105;-48
2023/12/07 03:22:24;;;;;;;4.18;2.28;;;19.90;99.90;;;;;;4974750;28;20030;-48
2023/12/07 03:24:52;;;;;;;7.60;2.28;;;19.90;99.90;;;;;;4974528;28;20058;-48
2023/12/07 03:27:18;;;;;;;5.65;2.35;;;19.80;99.90;;;;;;4974385;28;20519;-49
2023/12/07 03:29:44;;;;;;;3.28;2.15;;;19.90;99.90;;;;;;4974294;28;20066;-48
2023/12/07 03:32:10;;;;;;;3.10;2.08;;;19.80;99.90;;;;;;4974220;28;20055;-49
2023/12/07 03:34:35;;;;;;;4.55;2.15;;;19.90;99.90;;;;;;4971034;28;20081;-49
2023/12/07 03:37:03;;;;;;;4.93;2.22;;;19.90;99.90;;;;;;4966951;28;20066;-49
2023/12/07 03:39:29;;;;;;;6.40;2.30;;;19.80;99.90;;;;;;4974044;28;20106;-49
2023/12/07 03:41:55;;;;;;;3.80;1.98;;;19.80;99.90;;;;;;4973100;28;20023;-49
2023/12/07 03:44:21;;;;;;;5.95;2.00;;;19.80;99.90;;;;;;4987389;28;20038;-49
2023/12/07 03:46:46;;;;;;;7.25;2.30;;;19.80;99.90;;;;;;4981619;28;20059;-49
2023/12/07 03:49:12;;;;;;;4.55;2.30;;;19.80;99.90;;;;;;4991785;28;20402;-49
2023/12/07 03:51:38;;;;;;;5.40;2.30;;;19.80;99.90;;;;;;4992140;28;20030;-48
2023/12/07 03:54:05;;;;;;;6.70;2.40;;;19.80;99.90;;;;;;4987417;28;20050;-49
2023/12/07 03:56:32;;;;;;;4.07;1.83;;;19.80;99.90;;;;;;4979989;28;20022;-49
2023/12/07 03:58:58;;;;;;;3.88;2.28;;;19.80;99.90;;;;;;4982029;28;20026;-49
2023/12/07 04:01:25;;;;;;;3.35;1.95;;;19.80;99.90;;;;;;4980634;28;20114;-49
2023/12/07 04:03:56;;;;;;;3.60;2.38;;;19.80;99.90;;;;;;4967790;28;20039;-49
2023/12/07 04:06:22;;;;;;;3.20;2.17;;;19.80;99.90;;;;;;4972414;28;20031;-49
2023/12/07 04:08:48;;;;;;;3.72;2.10;;;19.80;99.90;;;;;;4973679;28;20026;-49
2023/12/07 04:11:14;;;;;;;5.75;2.20;;;19.80;99.90;;;;;;4973709;28;20031;-49
2023/12/07 04:13:41;;;;;;;5.68;2.22;;;19.80;99.90;;;;;;4973447;28;20426;-49
2023/12/07 04:16:08;;;;;;;5.82;2.45;;;19.80;99.90;;;;;;4974232;28;20026;-49
2023/12/07 04:18:34;;;;;;;3.53;1.83;;;19.80;99.90;;;;;;4974275;28;20027;-49
2023/12/07 04:20:59;;;;;;;13.85;2.25;;;19.80;99.90;;;;;;4974105;28;20268;-49
2023/12/07 04:23:25;;;;;;;11.82;2.35;;;19.80;99.90;;;;;;4974164;28;20058;-49
2023/12/07 04:25:51;;;;;;;3.33;2.00;;;19.80;99.90;;;;;;4973467;28;20026;-49
2023/12/07 04:28:17;;;;;;;3.30;2.72;;;19.80;99.90;;;;;;4973408;28;20375;-49
2023/12/07 04:30:43;;;;;;;9.18;2.65;;;19.80;99.90;;;;;;4973117;28;20474;-49
2023/12/07 04:33:08;;;;;;;9.07;2.83;;;19.80;99.90;;;;;;4973433;28;20490;-49
2023/12/07 04:35:34;;;;;;;4.80;2.50;;;19.80;99.90;;;;;;4972860;28;20050;-49
2023/12/07 04:38:00;;;;;;;4.55;2.30;;;19.80;99.90;;;;;;4973027;28;20027;-49
2023/12/07 04:40:26;;;;;;;4.38;2.60;;;19.80;99.90;;;;;;4973793;28;20375;-49
2023/12/07 04:42:52;;;;;;;5.85;2.50;;;19.80;99.90;;;;;;4973942;28;20056;-49
2023/12/07 04:45:18;;;;;;;4.28;2.40;;;19.80;99.90;;;;;;4973753;28;20423;-48
2023/12/07 04:47:44;;;;;;;7.38;2.53;;;19.80;99.90;;;;;;4973694;28;20026;-49
2023/12/07 04:50:10;;;;;;;4.95;2.05;;;19.80;99.90;;;;;;4973866;28;20023;-49
2023/12/07 04:52:36;;;;;;;4.15;2.10;;;19.70;99.90;;;;;;4973222;28;20027;-49
2023/12/07 04:55:02;;;;;;;5.22;1.92;;;19.80;99.90;;;;;;4973347;28;20035;-49
2023/12/07 04:57:28;;;;;;;3.53;2.03;;;19.70;99.90;;;;;;4972618;28;20089;-49
2023/12/07 04:59:54;;;;;;;3.58;2.20;;;19.80;99.90;;;;;;4973803;28;20093;-53
2023/12/07 05:02:20;;;;;;;3.47;1.90;;;19.80;99.90;;;;;;4973876;28;20057;-48
2023/12/07 05:04:46;;;;;;;5.43;2.30;;;19.80;99.90;;;;;;4973543;28;20023;-49
2023/12/07 05:07:12;;;;;;;4.78;1.95;;;19.80;99.90;;;;;;4971908;28;20085;-49
2023/12/07 05:09:38;;;;;;;3.67;2.03;;;19.80;99.90;;;;;;4973561;28;20023;-49
2023/12/07 05:12:05;;;;;;;4.15;2.15;;;19.80;99.90;;;;;;4973320;28;20088;-48
2023/12/07 05:14:32;;;;;;;3.00;1.85;;;19.70;99.90;;;;;;4973484;28;20475;-49
2023/12/07 05:16:57;;;;;;;3.58;2.00;;;19.70;99.90;;;;;;4973477;28;20062;-49
2023/12/07 05:19:24;;;;;;;3.35;1.95;;;19.70;99.90;;;;;;4973516;28;20131;-48
2023/12/07 05:21:50;;;;;;;6.65;2.50;;;19.70;99.90;;;;;;4973363;28;20023;-49
2023/12/07 05:24:16;;;;;;;2.40;1.80;;;19.70;99.90;;;;;;4973317;28;20479;-48
2023/12/07 05:26:42;;;;;;;5.18;1.95;;;19.70;99.90;;;;;;4973329;28;20073;-48
2023/12/07 05:29:09;;;;;;;3.72;2.13;;;19.70;99.90;;;;;;4973357;28;20479;-49
2023/12/07 05:31:36;;;;;;;4.78;2.00;;;19.70;99.90;;;;;;4973153;28;20510;-49
2023/12/07 05:34:02;;;;;;;3.70;2.08;;;19.70;99.90;;;;;;4973142;28;20043;-48
2023/12/07 05:36:29;;;;;;;4.03;2.30;;;19.70;99.90;;;;;;4972295;28;20029;-48
2023/12/07 05:38:54;;;;;;;2.80;1.98;;;19.70;99.90;;;;;;4973577;28;20166;-48
2023/12/07 05:41:20;;;;;;;3.42;2.10;;;19.70;99.90;;;;;;4973335;28;20066;-49
2023/12/07 05:43:46;;;;;;;3.35;2.30;;;19.70;99.90;;;;;;4973165;28;20497;-49
2023/12/07 05:46:12;;;;;;;4.47;2.13;;;19.70;99.90;;;;;;4973194;28;20478;-49
2023/12/07 05:48:38;;;;;;;3.55;2.08;;;19.70;99.90;;;;;;4973148;28;20549;-49
2023/12/07 05:51:04;;;;;;;6.95;2.50;;;19.70;99.90;;;;;;4973091;28;20027;-49
2023/12/07 05:53:32;;;;;;;3.95;2.10;;;19.70;99.90;;;;;;4973152;28;20482;-49
2023/12/07 05:55:58;;;;;;;4.05;1.90;;;19.70;99.90;;;;;;4973396;28;20383;-49
2023/12/07 05:58:24;;;;;;;4.65;2.03;;;19.70;99.90;;;;;;4973111;28;20035;-49
2023/12/07 06:00:50;;;;;;;5.32;2.05;;;19.70;99.90;;;;;;4972262;28;20042;-48
2023/12/07 06:03:16;;;;;;;3.28;2.22;;;19.70;99.90;;;;;;4973063;28;20545;-50
2023/12/07 06:05:43;;;;;;;3.75;1.92;;;19.70;99.90;;;;;;4972851;28;20053;-48
2023/12/07 06:08:09;;;;;;;3.20;2.13;;;19.70;99.90;;;;;;4974114;28;20023;-47
2023/12/07 06:10:35;;;;;;;4.57;1.98;;;19.70;99.90;;;;;;4975700;28;20475;-48
2023/12/07 06:13:01;;;;;;;6.35;2.60;;;19.70;99.90;;;;;;4976674;28;20031;-49
2023/12/07 06:15:27;;;;;;;4.38;2.30;;;19.70;99.90;;;;;;4976480;28;20023;-49
2023/12/07 06:17:54;;;;;;;2.30;1.85;;;19.70;99.90;;;;;;4976241;28;20031;-49
2023/12/07 06:20:20;;;;;;;2.60;2.13;;;19.70;99.90;;;;;;4976377;28;20038;-49
2023/12/07 06:22:46;;;;;;;2.53;1.77;;;19.70;99.90;;;;;;4976274;28;20033;-48
2023/12/07 06:25:12;;;;;;;3.65;1.88;;;19.70;99.90;;;;;;4976248;28;20395;-49
2023/12/07 06:27:38;;;;;;;4.38;2.13;;;19.70;99.90;;;;;;4976161;28;20031;-48
2023/12/07 06:30:07;;;;;;;3.55;1.80;;;19.70;99.90;;;;;;4976131;28;20038;-48
2023/12/07 06:32:33;;;;;;;3.05;2.05;;;19.70;99.90;;;;;;4976047;28;20059;-49
2023/12/07 06:35:00;;;;;;;3.25;2.10;;;19.70;99.90;;;;;;4974996;28;20094;-46
2023/12/07 06:37:26;;;;;;;3.83;1.98;;;19.70;99.90;;;;;;4976132;28;20022;-48
2023/12/07 06:39:52;;;;;;;2.67;2.22;;;19.70;99.90;;;;;;4976059;28;20023;-48
2023/12/07 06:42:18;;;;;;;3.35;2.08;;;19.70;99.90;;;;;;4974499;28;20491;-48
2023/12/07 06:44:49;;;;;;;5.00;1.92;;;19.70;99.90;;;;;;4975960;28;20034;-48
2023/12/07 06:47:15;;;;;;;4.13;1.88;;;19.70;99.90;;;;;;4975795;28;20031;-47
2023/12/07 06:49:41;;;;;;;5.97;2.35;;;19.70;99.90;;;;;;4975775;28;20041;-48
2023/12/07 06:52:07;;;;;;;2.95;1.70;;;19.70;99.90;;;;;;4974284;28;20555;-48
2023/12/07 06:54:33;;;;;;;3.60;2.38;;;19.70;99.90;;;;;;4975887;28;20086;-48
2023/12/07 06:56:59;;;;;;;2.58;1.83;;;19.60;99.90;;;;;;4975944;28;20035;-48
2023/12/07 06:59:25;;;;;;;4.20;1.70;;;19.70;99.90;;;;;;4975638;28;20030;-48
2023/12/07 07:01:51;;;;;;;2.58;1.77;;;19.70;99.90;;;;;;4975186;28;20051;-49
2023/12/07 07:04:17;;;;;;;2.28;1.80;;;19.70;99.90;;;;;;4975577;28;20114;-49
2023/12/07 07:06:43;;;;;;;5.05;1.70;;;19.70;99.90;;;;;;4975443;28;20037;-48
2023/12/07 07:09:08;;;;;;;2.90;1.67;;;19.70;99.90;;;;;;4975488;28;20029;-49
2023/12/07 07:11:34;;;;;;;2.47;2.13;;;19.70;99.90;;;;;;4975333;28;20161;-49
2023/12/07 07:14:01;;;;;;;3.75;1.70;;;19.70;99.90;;;;;;4974258;28;20093;-49
2023/12/07 07:16:27;;;;;;;3.47;1.90;;;19.70;99.90;;;;;;4975310;28;20027;-49
2023/12/07 07:18:52;;;;;;;2.97;1.88;;;19.70;99.90;;;;;;4974970;28;20033;-49
2023/12/07 07:21:19;;;;;;;5.38;1.80;;;19.70;99.90;;;;;;4975174;28;20054;-49
2023/12/07 07:23:45;;;;;;;3.22;1.45;;;19.70;99.90;;;;;;4975211;28;20031;-49
2023/12/07 07:26:16;;;;;;;3.30;1.70;;;19.70;99.90;;;;;;4975189;28;20037;-49
2023/12/07 07:28:42;;;;;;;4.35;1.48;;;19.70;99.90;;;;;;4975075;28;20030;-49
2023/12/07 07:31:08;;;;;;;3.47;1.73;;;19.70;99.90;;;;;;4973596;28;20034;-49
2023/12/07 07:33:34;;;;;;;7.00;2.20;;;19.70;99.90;;;;;;4975203;28;20391;-48
2023/12/07 07:36:00;;;;;;;1.92;1.65;;;19.70;99.90;;;;;;4974954;28;20023;-49
2023/12/07 07:38:26;;;;;;;2.67;1.80;;;19.70;99.90;;;;;;4973754;28;20042;-48
2023/12/07 07:40:52;;;;;;;2.65;1.58;;;19.70;99.90;;;;;;4975057;28;20439;-49
2023/12/07 07:43:17;;;;;;;2.65;1.65;;;19.70;99.90;;;;;;4974833;28;20073;-49
2023/12/07 07:45:43;;;;;;;2.35;2.10;;;19.70;99.90;;;;;;4974904;28;20431;-48
2023/12/07 07:48:09;;;;;;;3.22;1.60;;;19.70;99.90;;;;;;4974669;28;20410;-48
2023/12/07 07:50:36;;;;;;;1.80;1.70;;;19.70;99.90;;;;;;4975023;28;20081;-48
2023/12/07 07:53:03;;;;;;;2.35;1.90;;;19.70;99.90;;;;;;4974768;28;20035;-48
2023/12/07 07:55:29;;;;;;;1.55;1.45;;;19.70;99.90;;;;;;4974547;28;20031;-48
2023/12/07 07:57:55;;;;;;;3.92;1.98;;;19.70;99.90;;;;;;4974501;28;20031;-48
2023/12/07 08:00:21;;;;;;;1.83;1.60;;;19.70;99.90;;;;;;4974533;28;20023;-48
2023/12/07 08:02:47;;;;;;;2.58;1.67;;;19.70;99.90;;;;;;4974430;28;20043;-49
2023/12/07 08:05:14;;;;;;;2.85;2.30;;;19.70;99.90;;;;;;4974266;28;20059;-49
2023/12/07 08:07:40;;;;;;;5.75;2.15;;;19.70;99.90;;;;;;4974334;28;20069;-48
2023/12/07 08:10:08;;;;;;;4.35;2.00;;;19.70;99.90;;;;;;4974500;28;20026;-47
2023/12/07 08:12:35;;;;;;;3.17;2.47;;;19.70;99.90;;;;;;4974510;28;20410;-49
2023/12/07 08:15:01;;;;;;;3.08;2.15;;;19.70;99.90;;;;;;4974452;28;20435;-49
2023/12/07 08:17:27;;;;;;;4.07;2.30;;;19.70;99.90;;;;;;4974247;28;20534;-48
2023/12/07 08:19:53;;;;;;;2.97;2.40;;;19.70;99.90;;;;;;4974251;28;20455;-47
2023/12/07 08:22:20;;;;;;;4.88;2.28;;;19.70;99.90;;;;;;4974250;28;20022;-48
2023/12/07 08:24:46;;;;;;;2.30;1.90;;;19.70;99.90;;;;;;4974254;28;20039;-48
2023/12/07 08:27:11;;;;;;;4.25;2.47;;;19.70;99.90;;;;;;4974093;28;20472;-48
2023/12/07 08:29:37;;;;;;;2.60;1.92;;;19.70;99.90;;;;;;4974307;28;20490;-48
2023/12/07 08:32:04;;;;;;;3.58;2.35;;;19.70;99.90;;;;;;4973465;28;20129;-49
2023/12/07 08:34:30;;;;;;;3.03;2.22;;;19.70;99.90;;;;;;4973879;28;20035;-49
2023/12/07 08:36:55;;;;;;;3.33;2.47;;;19.70;99.90;;;;;;4973907;28;20583;-49
2023/12/07 08:39:21;;;;;;;2.58;1.95;;;19.70;99.90;;;;;;4973791;28;20030;-49
2023/12/07 08:41:47;;;;;;;4.10;2.08;;;19.70;99.90;;;;;;4973724;28;20495;-49
2023/12/07 08:44:13;;;;;;;3.00;2.50;;;19.80;99.90;;;;;;4973790;28;20027;-49
2023/12/07 08:46:38;;;;;;;5.10;2.47;;;19.70;99.90;;;;;;4973947;28;20026;-48
2023/12/07 08:49:04;;;;;;;3.72;2.22;;;19.70;99.90;;;;;;4974011;28;20484;-49
2023/12/07 08:51:30;;;;;;;3.83;2.10;;;19.80;99.90;;;;;;4973664;28;20105;-48
2023/12/07 08:53:56;;;;;;;4.82;2.35;;;19.80;99.90;;;;;;4972413;28;20097;-49
2023/12/07 08:56:22;;;;;;;4.38;2.53;;;19.70;99.90;;;;;;4973591;28;20431;-49
2023/12/07 08:58:47;;;;;;;3.00;2.13;;;19.80;99.90;;;;;;4973745;28;20031;-50
2023/12/07 09:01:13;;;;;;;5.50;2.50;;;19.80;99.90;;;;;;4973432;28;20491;-50
2023/12/07 09:03:41;;;;;;;5.47;2.58;;;19.80;99.90;;;;;;4972411;28;20125;-50
2023/12/07 09:06:08;;;;;;;4.68;2.30;;;19.80;99.90;;;;;;4973846;28;20058;-49
2023/12/07 09:08:34;;;;;;;2.93;2.17;;;19.80;99.90;;;;;;4973472;28;20106;-49
2023/12/07 09:11:00;;;;;;;3.60;2.22;;;19.80;99.90;;;;;;4973432;28;20293;-49
2023/12/07 09:13:25;;;;;;;3.00;2.60;;;19.80;99.90;;;;;;4973387;28;20110;-48
2023/12/07 09:15:51;;;;;;;6.88;2.50;;;19.80;99.90;;;;;;4973329;28;20030;-48
2023/12/07 09:18:17;;;;;;;3.05;2.30;;;19.80;99.90;;;;;;4973339;28;20449;-50
2023/12/07 09:20:45;;;;;;;2.42;2.10;;;19.90;99.90;;;;;;4973212;28;20102;-50
2023/12/07 09:23:16;;;;;;;6.53;3.00;;;19.90;99.90;;;;;;4973436;28;20027;-50
2023/12/07 09:25:43;;;;;;;3.40;2.28;;;19.90;99.90;;;;;;4973163;28;20550;-50
2023/12/07 09:28:09;;;;;;;5.10;2.83;;;19.90;99.90;;;;;;4973478;28;20035;-50
2023/12/07 09:30:35;;;;;;;3.88;2.17;;;19.90;99.90;;;;;;4971889;28;20077;-50
2023/12/07 09:33:04;;;;;;;3.00;2.60;;;19.90;99.90;;;;;;4973416;28;20408;-49
2023/12/07 09:35:30;;;;;;;4.80;2.97;;;20.00;99.90;;;;;;4973220;28;20496;-49
2023/12/07 09:37:55;;;;;;;4.38;2.50;;;20.00;99.90;;;;;;4971976;28;20107;-49
2023/12/07 09:40:24;;;;;;;3.00;2.47;;;20.10;99.90;;;;;;4972793;28;20031;-49
2023/12/07 09:42:50;;;;;;;3.95;2.42;;;20.10;99.90;;;;;;4974078;28;20086;-49
2023/12/07 09:45:18;;;;;;;4.80;2.83;;;20.10;99.90;;;;;;4977187;28;20030;-49
2023/12/07 09:47:52;;;;;;;4.70;2.67;;;20.10;99.90;;;;;;4976878;28;20034;-48
2023/12/07 09:50:22;;;;;;;4.25;2.20;;;20.20;99.90;;;;;;4976851;28;20074;-49
2023/12/07 09:52:52;;;;;;;3.72;2.60;;;20.20;99.90;;;;;;4976606;28;20023;-50
2023/12/07 09:55:19;;;;;;;4.65;3.05;;;20.30;99.90;;;;;;4976798;28;20037;-49
2023/12/07 09:57:46;;;;;;;5.28;3.03;;;20.30;99.90;;;;;;4976786;28;20125;-50
2023/12/07 10:00:14;;;;;;;4.70;3.00;;;20.40;99.90;;;;;;4977093;28;20198;-50
2023/12/07 10:02:42;;;;;;;5.05;3.17;;;20.40;99.90;;;;;;4976763;28;20058;-50
2023/12/07 10:05:16;;;;;;;4.25;2.83;;;20.50;99.90;;;;;;4976826;28;20046;-51
2023/12/07 10:07:50;;;;;;;4.80;2.83;;;20.50;99.90;;;;;;4975622;28;20497;-50
2023/12/07 10:10:17;;;;;;;4.38;2.55;;;20.60;99.90;;;;;;4976479;28;20027;-49
2023/12/07 10:12:57;;;;;;;;;;;20.60;99.90;;;;;;4976742;28;20035;-50
2023/12/07 10:15:24;;;;;;;4.30;2.60;;;20.70;99.90;;;;;;4976359;28;19906;-50
2023/12/07 10:17:51;;;;;;;4.78;2.33;;;20.80;99.90;;;;;;4975263;28;20038;-49
2023/12/07 10:20:24;;;;;;;4.55;2.83;;;20.80;99.90;;;;;;4976245;28;20023;-50
2023/12/07 10:23:04;;;;;;;5.18;2.42;;;20.80;99.90;;;;;;4976407;28;20027;-51
2023/12/07 10:25:36;;;;;;;5.78;2.50;;;20.80;99.90;;;;;;4976233;28;20027;-50
2023/12/07 10:28:06;;;;;;;3.22;2.30;;;20.80;99.90;;;;;;4975005;28;20031;-49
2023/12/07 10:30:32;;;;;;;8.00;3.13;;;20.90;99.90;;;;;;4976062;28;20463;-49
2023/12/07 10:32:58;;;;;;;5.43;2.80;;;20.90;99.90;;;;;;4975934;28;20389;-49
2023/12/07 10:35:25;;;;;;;3.92;2.70;;;20.90;99.90;;;;;;4975013;28;20034;-50
2023/12/07 10:37:51;;;;;;;9.23;3.03;;;20.90;99.90;;;;;;4976070;28;20464;-49
2023/12/07 10:40:20;;;;;;;5.70;2.88;;;21.00;99.90;;;;;;4976036;28;20256;-50
2023/12/07 10:42:48;;;;;;;4.55;2.28;;;21.00;99.90;;;;;;4974695;28;20019;-50
2023/12/07 10:45:18;;;;;;;5.20;2.67;;;21.00;99.90;;;;;;4974821;28;20082;-49
2023/12/07 10:47:44;;;;;;;4.90;2.85;;;21.10;99.90;;;;;;4976077;28;20023;-49
2023/12/07 10:50:13;;;;;;;3.30;2.75;;;21.10;99.90;;;;;;4976085;28;20031;-49
2023/12/07 10:52:54;;;;;;;3.92;2.58;;;21.20;99.90;;;;;;4974491;28;20379;-49
2023/12/07 10:55:25;;;;;;;4.07;2.88;;;21.20;99.90;;;;;;4975122;28;20042;-49
2023/12/07 10:57:53;;;;;;;3.75;2.47;;;21.30;99.90;;;;;;4975565;28;20019;-49
2023/12/07 11:00:23;;;;;;;3.78;2.55;;;21.30;99.90;;;;;;4974266;28;20069;-49
2023/12/07 11:02:52;;;;;;;5.18;2.78;;;21.40;99.90;;;;;;4975496;28;20506;-50
2023/12/07 11:05:18;;;;;;;8.90;3.58;;;21.40;99.90;;;;;;4975332;28;20380;-49
2023/12/07 11:08:07;;;;;;;5.63;2.85;;;21.50;99.90;;;;;;4975481;28;20030;-50
2023/12/07 11:11:06;;;;;;;4.93;2.55;;;21.60;99.90;;;;;;4975454;28;20018;-50
2023/12/07 11:13:35;;;;;;;5.32;2.38;;;21.60;99.90;;;;;;4973981;28;20634;-49
2023/12/07 11:16:02;;;;;;;6.00;2.75;;;21.70;99.90;;;;;;4975178;28;20031;-50
2023/12/07 11:18:28;;;;;;;4.83;3.17;;;21.70;99.90;;;;;;4975272;28;20030;-50
2023/12/07 11:20:58;;;;;;;5.63;2.63;;;21.70;99.90;;;;;;4975225;28;20360;-50
2023/12/07 11:23:26;;;;;;;6.68;3.10;;;21.80;99.90;;;;;;4975215;28;20101;-50
2023/12/07 11:25:54;;;;;;;6.43;2.80;;;21.80;99.90;;;;;;4975196;28;20102;-49
2023/12/07 11:28:38;;;;;;;8.70;3.15;;;21.80;99.90;;;;;;4975156;28;20386;-50
2023/12/07 11:31:07;;;;;;;5.15;2.65;;;21.80;99.90;;;;;;4975000;28;20023;-49
2023/12/07 11:33:33;;;;;;;5.80;3.33;;;21.90;99.90;;;;;;4974899;28;20045;-49
2023/12/07 11:36:01;;;;;;;6.22;3.00;;;21.90;99.90;;;;;;4975012;28;20028;-50
2023/12/07 11:38:27;;;;;;;7.97;3.03;;;21.90;99.90;;;;;;4974970;28;20022;-50
2023/12/07 11:40:58;;;;;;;6.03;2.30;;;21.90;99.90;;;;;;4974872;28;20110;-49
2023/12/07 11:43:32;;;;;;;5.60;2.60;;;22.00;99.90;;;;;;4973624;28;20082;-49
2023/12/07 11:45:59;;;;;;;4.75;2.55;;;22.00;99.90;;;;;;4974793;28;20023;-49
2023/12/07 11:48:25;;;;;;;3.33;2.55;;;22.00;99.90;;;;;;4974835;28;20118;-49
2023/12/07 11:51:05;;;;;;;8.40;2.65;;;22.10;99.90;;;;;;4974717;28;20054;-50
2023/12/07 11:53:32;;;;;;;3.10;2.20;;;22.10;99.90;;;;;;4974956;28;20099;-49
2023/12/07 11:55:59;;;;;;;;;;;22.10;99.90;;;;;;4975016;28;20077;-50
2023/12/07 11:58:26;;;;;;;5.43;2.85;;;22.10;99.90;;;;;;4974442;28;19910;-50
2023/12/07 12:00:53;;;;;;;5.97;3.25;;;22.20;99.90;;;;;;4974297;28;20480;-50
2023/12/07 12:03:20;;;;;;;3.70;2.42;;;22.20;99.90;;;;;;4974390;28;20049;-50
2023/12/07 12:05:46;;;;;;;5.53;2.63;;;22.20;99.90;;;;;;4973530;28;20076;-50
2023/12/07 12:08:11;;;;;;;5.13;2.45;;;22.20;99.90;;;;;;4974334;28;20150;-50
2023/12/07 12:10:38;;;;;;;5.28;2.90;;;22.20;99.90;;;;;;4974084;28;20030;-49
2023/12/07 12:13:04;;;;;;;4.20;2.83;;;22.20;99.90;;;;;;4974283;28;20118;-50
2023/12/07 12:15:31;;;;;;;3.45;2.08;;;22.20;99.90;;;;;;4974190;28;20102;-50
2023/12/07 12:17:57;;;;;;;6.47;2.80;;;22.20;99.90;;;;;;4974104;28;20033;-50
2023/12/07 12:20:24;;;;;;;4.95;2.33;;;22.20;99.90;;;;;;4974070;28;20038;-49
2023/12/07 12:22:54;;;;;;;4.97;3.15;;;22.20;99.90;;;;;;4974214;28;20019;-50
2023/12/07 12:25:28;;;;;;;5.22;2.15;;;22.30;99.90;;;;;;4972812;28;20026;-50
2023/12/07 12:27:55;;;;;;;5.35;2.75;;;22.30;99.90;;;;;;4973904;28;20022;-50
2023/12/07 12:30:25;;;;;;;5.97;2.97;;;22.30;99.90;;;;;;4974086;28;20098;-50
2023/12/07 12:32:51;;;;;;;4.55;2.35;;;22.30;99.90;;;;;;4972607;28;20054;-49
2023/12/07 12:35:18;;;;;;;6.32;2.40;;;22.30;99.90;;;;;;4972764;28;20069;-48
2023/12/07 12:37:48;;;;;;;4.03;2.08;;;22.30;99.90;;;;;;4973807;28;20053;-49
2023/12/07 12:40:18;;;;;;;3.78;2.53;;;22.30;99.90;;;;;;4973773;28;20018;-51
2023/12/07 12:42:46;;;;;;;3.45;2.13;;;22.30;99.90;;;;;;4973639;28;20073;-49
2023/12/07 12:45:13;;;;;;;5.00;2.20;;;22.40;99.90;;;;;;4969555;28;20024;-48
2023/12/07 12:47:43;;;;;;;4.53;1.90;;;22.40;99.90;;;;;;4973187;28;20464;-51